sensor_id;sensor_type;location;lat;lon;timestamp;pressure;altitude;pressure_sealevel;temperature;humidity
75072;BME280;63651;55.728;38.022;2023-04-24T00:00:29;99511.09;;;20.09;27.56
75072;BME280;63651;55.728;38.022;2023-04-24T00:05:30;99506.41;;;20.09;27.81
75072;BME280;63651;55.728;38.022;2023-04-24T00:10:32;99510.84;;;20.10;27.69
75072;BME280;63651;55.728;38.022;2023-04-24T00:15:34;99511.94;;;20.09;27.83
75072;BME280;63651;55.728;38.022;2023-04-24T00:20:35;99514.41;;;20.11;27.71
75072;BME280;63651;55.728;38.022;2023-04-24T00:25:36;99504.75;;;20.08;27.86
75072;BME280;63651;55.728;38.022;2023-04-24T00:30:37;99503.38;;;20.11;27.82
75072;BME280;63651;55.728;38.022;2023-04-24T00:35:38;99514.13;;;20.07;27.94
75072;BME280;63651;55.728;38.022;2023-04-24T00:40:39;99517.72;;;20.08;27.78
75072;BME280;63651;55.728;38.022;2023-04-24T00:45:40;99512.19;;;20.08;27.84
75072;BME280;63651;55.728;38.022;2023-04-24T00:50:41;99511.38;;;20.07;27.89
75072;BME280;63651;55.728;38.022;2023-04-24T00:55:42;99510.81;;;20.05;27.79
75072;BME280;63651;55.728;38.022;2023-04-24T01:00:44;99508.88;;;20.06;28.02
75072;BME280;63651;55.728;38.022;2023-04-24T01:05:46;99510.81;;;20.05;27.94
75072;BME280;63651;55.728;38.022;2023-04-24T01:10:48;99508.88;;;20.06;27.82
75072;BME280;63651;55.728;38.022;2023-04-24T01:15:51;99504.47;;;20.05;27.79
75072;BME280;63651;55.728;38.022;2023-04-24T01:20:53;99508.03;;;20.00;27.91
75072;BME280;63651;55.728;38.022;2023-04-24T01:25:57;99496.16;;;19.95;28.01
75072;BME280;63651;55.728;38.022;2023-04-24T01:30:59;99500.03;;;19.99;27.84
75072;BME280;63651;55.728;38.022;2023-04-24T01:36:00;99497.00;;;20.00;27.67
75072;BME280;63651;55.728;38.022;2023-04-24T01:41:02;99490.38;;;19.96;27.98
75072;BME280;63651;55.728;38.022;2023-04-24T01:46:03;99500.28;;;19.97;27.85
75072;BME280;63651;55.728;38.022;2023-04-24T01:51:04;99497.81;;;19.96;27.79
75072;BME280;63651;55.728;38.022;2023-04-24T01:56:06;99495.03;;;19.96;27.87
75072;BME280;63651;55.728;38.022;2023-04-24T02:01:07;99493.13;;;19.96;27.93
75072;BME280;63651;55.728;38.022;2023-04-24T02:06:08;99504.44;;;20.00;28.07
75072;BME280;63651;55.728;38.022;2023-04-24T02:11:09;99503.63;;;19.99;27.78
75072;BME280;63651;55.728;38.022;2023-04-24T02:16:10;99499.47;;;19.97;27.82
75072;BME280;63651;55.728;38.022;2023-04-24T02:21:11;99513.25;;;19.97;27.94
75072;BME280;63651;55.728;38.022;2023-04-24T02:26:12;99508.56;;;19.97;28.11
75072;BME280;63651;55.728;38.022;2023-04-24T02:31:14;99504.19;;;20.01;27.93
75072;BME280;63651;55.728;38.022;2023-04-24T02:36:15;99507.75;;;20.02;27.89
75072;BME280;63651;55.728;38.022;2023-04-24T02:41:16;99510.25;;;20.03;27.71
75072;BME280;63651;55.728;38.022;2023-04-24T02:46:17;99521.28;;;20.03;27.79
75072;BME280;63651;55.728;38.022;2023-04-24T02:51:18;99519.09;;;20.05;27.91
75072;BME280;63651;55.728;38.022;2023-04-24T02:56:19;99520.75;;;20.06;27.88
75072;BME280;63651;55.728;38.022;2023-04-24T03:01:20;99526.56;;;20.10;27.75
75072;BME280;63651;55.728;38.022;2023-04-24T03:06:21;99529.03;;;20.11;27.89
75072;BME280;63651;55.728;38.022;2023-04-24T03:11:22;99534.28;;;20.13;27.68
75072;BME280;63651;55.728;38.022;2023-04-24T03:16:23;99536.50;;;20.16;27.80
75072;BME280;63651;55.728;38.022;2023-04-24T03:21:24;99532.91;;;20.16;27.72
75072;BME280;63651;55.728;38.022;2023-04-24T03:26:25;99543.16;;;20.20;27.63
75072;BME280;63651;55.728;38.022;2023-04-24T03:31:26;99533.19;;;20.14;27.83
75072;BME280;63651;55.728;38.022;2023-04-24T03:36:27;99538.97;;;20.12;27.28
75072;BME280;63651;55.728;38.022;2023-04-24T03:41:28;99542.00;;;20.11;27.39
75072;BME280;63651;55.728;38.022;2023-04-24T03:46:30;99547.78;;;20.09;27.48
75072;BME280;63651;55.728;38.022;2023-04-24T03:51:32;99544.78;;;20.16;27.56
75072;BME280;63651;55.728;38.022;2023-04-24T03:56:33;99542.59;;;20.23;27.55
75072;BME280;63651;55.728;38.022;2023-04-24T04:01:34;99551.72;;;20.24;27.65
75072;BME280;63651;55.728;38.022;2023-04-24T04:06:37;99560.81;;;20.24;27.66
75072;BME280;63651;55.728;38.022;2023-04-24T04:11:38;99558.91;;;20.30;27.95
75072;BME280;63651;55.728;38.022;2023-04-24T04:16:40;99565.84;;;20.37;27.95
75072;BME280;63651;55.728;38.022;2023-04-24T04:21:41;99556.47;;;20.38;27.92
75072;BME280;63651;55.728;38.022;2023-04-24T04:26:42;99564.25;;;20.41;27.96
75072;BME280;63651;55.728;38.022;2023-04-24T04:31:47;99562.59;;;20.45;27.84
75072;BME280;63651;55.728;38.022;2023-04-24T04:36:48;99555.72;;;20.48;27.78
75072;BME280;63651;55.728;38.022;2023-04-24T04:41:49;99565.94;;;20.53;27.91
75072;BME280;63651;55.728;38.022;2023-04-24T04:46:51;99564.56;;;20.55;27.85
75072;BME280;63651;55.728;38.022;2023-04-24T04:51:53;99560.72;;;20.61;27.86
75072;BME280;63651;55.728;38.022;2023-04-24T04:56:55;99565.72;;;20.64;28.07
75072;BME280;63651;55.728;38.022;2023-04-24T05:01:56;99571.22;;;20.59;28.54
75072;BME280;63651;55.728;38.022;2023-04-24T05:06:57;99570.13;;;20.65;28.86
75072;BME280;63651;55.728;38.022;2023-04-24T05:11:58;99575.94;;;20.74;29.00
75072;BME280;63651;55.728;38.022;2023-04-24T05:16:59;99571.28;;;20.80;29.28
75072;BME280;63651;55.728;38.022;2023-04-24T05:22:00;99576.28;;;20.88;30.07
75072;BME280;63651;55.728;38.022;2023-04-24T05:27:03;99571.88;;;20.92;29.99
75072;BME280;63651;55.728;38.022;2023-04-24T05:32:07;99575.50;;;20.97;30.45
75072;BME280;63651;55.728;38.022;2023-04-24T05:37:08;99574.66;;;21.02;30.38
75072;BME280;63651;55.728;38.022;2023-04-24T05:42:10;99578.31;;;22.19;30.83
75072;BME280;63651;55.728;38.022;2023-04-24T05:47:30;99569.31;;;22.53;30.30
75072;BME280;63651;55.728;38.022;2023-04-24T05:52:31;99576.72;;;22.73;30.11
75072;BME280;63651;55.728;38.022;2023-04-24T05:57:32;99563.94;;;22.82;30.06
75072;BME280;63651;55.728;38.022;2023-04-24T06:02:33;99576.38;;;22.89;29.86
75072;BME280;63651;55.728;38.022;2023-04-24T06:07:34;99567.72;;;23.01;29.60
75072;BME280;63651;55.728;38.022;2023-04-24T06:12:36;99566.03;;;23.05;29.43
75072;BME280;63651;55.728;38.022;2023-04-24T06:17:38;99568.47;;;23.12;29.00
75072;BME280;63651;55.728;38.022;2023-04-24T06:22:39;99567.56;;;23.21;28.40
75072;BME280;63651;55.728;38.022;2023-04-24T06:27:40;99581.66;;;23.30;28.03
75072;BME280;63651;55.728;38.022;2023-04-24T06:32:41;99577.22;;;23.29;28.00
75072;BME280;63651;55.728;38.022;2023-04-24T06:37:43;99574.97;;;23.31;27.60
75072;BME280;63651;55.728;38.022;2023-04-24T06:42:44;99568.56;;;23.41;27.76
75072;BME280;63651;55.728;38.022;2023-04-24T06:47:45;99576.84;;;23.46;27.10
75072;BME280;63651;55.728;38.022;2023-04-24T06:52:47;99576.31;;;23.44;27.13
75072;BME280;63651;55.728;38.022;2023-04-24T06:57:48;99577.03;;;23.59;26.96
75072;BME280;63651;55.728;38.022;2023-04-24T07:02:50;99570.66;;;23.54;26.75
75072;BME280;63651;55.728;38.022;2023-04-24T07:07:52;99579.84;;;23.54;26.46
75072;BME280;63651;55.728;38.022;2023-04-24T07:12:54;99578.69;;;23.60;26.21
75072;BME280;63651;55.728;38.022;2023-04-24T07:17:57;99579.50;;;23.61;26.07
75072;BME280;63651;55.728;38.022;2023-04-24T07:22:58;99583.38;;;23.65;26.15
75072;BME280;63651;55.728;38.022;2023-04-24T07:27:59;99571.69;;;23.68;25.85
75072;BME280;63651;55.728;38.022;2023-04-24T07:33:00;99575.88;;;23.66;25.55
75072;BME280;63651;55.728;38.022;2023-04-24T07:38:01;99581.88;;;23.78;25.69
75072;BME280;63651;55.728;38.022;2023-04-24T07:43:02;99575.44;;;23.82;25.66
75072;BME280;63651;55.728;38.022;2023-04-24T07:48:04;99571.19;;;23.90;25.42
75072;BME280;63651;55.728;38.022;2023-04-24T07:53:05;99557.56;;;23.93;25.24
75072;BME280;63651;55.728;38.022;2023-04-24T07:58:06;99561.34;;;24.03;25.28
75072;BME280;63651;55.728;38.022;2023-04-24T08:03:07;99560.81;;;24.01;25.51
75072;BME280;63651;55.728;38.022;2023-04-24T08:08:10;99554.94;;;24.07;25.08
75072;BME280;63651;55.728;38.022;2023-04-24T08:13:12;99533.78;;;24.11;25.05
75072;BME280;63651;55.728;38.022;2023-04-24T08:18:13;99548.38;;;24.22;25.22
75072;BME280;63651;55.728;38.022;2023-04-24T08:23:33;99548.06;;;24.23;25.06
75072;BME280;63651;55.728;38.022;2023-04-24T08:28:34;99541.09;;;24.26;24.92
75072;BME280;63651;55.728;38.022;2023-04-24T08:33:36;99549.09;;;24.33;24.76
75072;BME280;63651;55.728;38.022;2023-04-24T08:38:37;99551.00;;;24.37;24.22
75072;BME280;63651;55.728;38.022;2023-04-24T08:43:40;99544.63;;;24.37;25.01
75072;BME280;63651;55.728;38.022;2023-04-24T08:48:42;99537.66;;;24.39;24.43
75072;BME280;63651;55.728;38.022;2023-04-24T08:53:45;99512.50;;;24.31;23.82
75072;BME280;63651;55.728;38.022;2023-04-24T08:58:46;99523.75;;;24.39;24.18
75072;BME280;63651;55.728;38.022;2023-04-24T09:03:49;99519.47;;;24.28;24.18
75072;BME280;63651;55.728;38.022;2023-04-24T09:08:52;99523.00;;;24.34;24.12
75072;BME280;63651;55.728;38.022;2023-04-24T09:13:55;99519.16;;;24.30;23.64
75072;BME280;63651;55.728;38.022;2023-04-24T09:18:57;99510.16;;;24.14;23.59
75072;BME280;63651;55.728;38.022;2023-04-24T09:24:08;99505.66;;;24.18;23.72
75072;BME280;63651;55.728;38.022;2023-04-24T09:29:16;99502.31;;;24.21;23.87
75072;BME280;63651;55.728;38.022;2023-04-24T09:34:25;99507.31;;;24.19;23.53
75072;BME280;63651;55.728;38.022;2023-04-24T09:39:26;99497.81;;;24.25;23.74
75072;BME280;63651;55.728;38.022;2023-04-24T09:44:28;99499.31;;;24.41;23.49
75072;BME280;63651;55.728;38.022;2023-04-24T09:49:30;99493.00;;;24.54;23.06
75072;BME280;63651;55.728;38.022;2023-04-24T09:54:34;99478.28;;;24.54;22.88
75072;BME280;63651;55.728;38.022;2023-04-24T09:59:42;99483.41;;;24.47;22.71
75072;BME280;63651;55.728;38.022;2023-04-24T10:04:55;99488.44;;;24.64;22.57
75072;BME280;63651;55.728;38.022;2023-04-24T10:09:57;99485.19;;;24.56;22.58
75072;BME280;63651;55.728;38.022;2023-04-24T10:14:59;99472.59;;;24.64;22.51
75072;BME280;63651;55.728;38.022;2023-04-24T10:20:02;99476.28;;;24.60;22.42
75072;BME280;63651;55.728;38.022;2023-04-24T10:25:04;99459.53;;;24.65;22.42
75072;BME280;63651;55.728;38.022;2023-04-24T10:30:07;99462.44;;;24.36;25.42
75072;BME280;63651;55.728;38.022;2023-04-24T10:35:11;99454.31;;;23.73;28.63
75072;BME280;63651;55.728;38.022;2023-04-24T10:40:18;99458.97;;;23.48;28.76
75072;BME280;63651;55.728;38.022;2023-04-24T10:45:21;99459.34;;;23.37;28.77
75072;BME280;63651;55.728;38.022;2023-04-24T10:50:22;99460.59;;;23.20;29.53
75072;BME280;63651;55.728;38.022;2023-04-24T10:56:02;99456.22;;;23.14;30.88
75072;BME280;63651;55.728;38.022;2023-04-24T11:01:03;99435.69;;;23.15;30.90
75072;BME280;63651;55.728;38.022;2023-04-24T11:06:06;99441.47;;;23.19;31.12
75072;BME280;63651;55.728;38.022;2023-04-24T11:11:10;99430.88;;;23.26;31.92
75072;BME280;63651;55.728;38.022;2023-04-24T11:16:32;99416.50;;;23.24;31.65
75072;BME280;63651;55.728;38.022;2023-04-24T11:21:46;99407.94;;;23.20;32.20
75072;BME280;63651;55.728;38.022;2023-04-24T11:26:47;99423.00;;;23.38;32.87
75072;BME280;63651;55.728;38.022;2023-04-24T11:31:48;99418.28;;;23.39;32.20
75072;BME280;63651;55.728;38.022;2023-04-24T11:36:51;99411.44;;;23.31;32.37
75072;BME280;63651;55.728;38.022;2023-04-24T11:41:53;99405.22;;;23.44;32.54
75072;BME280;63651;55.728;38.022;2023-04-24T11:46:55;99385.22;;;23.47;32.43
75072;BME280;63651;55.728;38.022;2023-04-24T11:51:57;99380.97;;;23.60;32.31
75072;BME280;63651;55.728;38.022;2023-04-24T11:56:58;99381.66;;;23.71;31.59
75072;BME280;63651;55.728;38.022;2023-04-24T12:01:59;99361.94;;;23.72;31.22
75072;BME280;63651;55.728;38.022;2023-04-24T12:07:03;99365.72;;;23.81;31.57
75072;BME280;63651;55.728;38.022;2023-04-24T12:12:06;99367.28;;;23.87;31.66
75072;BME280;63651;55.728;38.022;2023-04-24T12:17:07;99355.91;;;23.89;31.91
75072;BME280;63651;55.728;38.022;2023-04-24T12:22:08;99350.50;;;23.98;31.11
75072;BME280;63651;55.728;38.022;2023-04-24T12:27:19;99361.63;;;23.98;30.92
75072;BME280;63651;55.728;38.022;2023-04-24T12:32:21;99359.13;;;23.96;30.70
75072;BME280;63651;55.728;38.022;2023-04-24T12:37:26;99359.28;;;24.05;30.48
75072;BME280;63651;55.728;38.022;2023-04-24T12:42:33;99353.84;;;23.52;36.69
75072;BME280;63651;55.728;38.022;2023-04-24T12:47:35;99332.16;;;22.72;39.97
75072;BME280;63651;55.728;38.022;2023-04-24T12:52:37;99344.50;;;22.90;39.18
75072;BME280;63651;55.728;38.022;2023-04-24T12:57:40;99351.50;;;22.77;40.02
75072;BME280;63651;55.728;38.022;2023-04-24T13:02:41;99352.03;;;22.79;40.70
75072;BME280;63651;55.728;38.022;2023-04-24T13:07:42;99344.31;;;22.81;40.59
75072;BME280;63651;55.728;38.022;2023-04-24T13:12:43;99341.63;;;22.66;41.60
75072;BME280;63651;55.728;38.022;2023-04-24T13:17:46;99315.31;;;22.68;40.58
75072;BME280;63651;55.728;38.022;2023-04-24T13:22:47;99321.81;;;22.88;40.52
75072;BME280;63651;55.728;38.022;2023-04-24T13:27:48;99319.03;;;22.88;40.60
75072;BME280;63651;55.728;38.022;2023-04-24T13:32:50;99308.31;;;22.76;41.87
75072;BME280;63651;55.728;38.022;2023-04-24T13:37:51;99311.13;;;22.71;41.55
75072;BME280;63651;55.728;38.022;2023-04-24T13:42:52;99324.81;;;22.57;38.26
75072;BME280;63651;55.728;38.022;2023-04-24T13:47:53;99317.00;;;22.64;40.18
75072;BME280;63651;55.728;38.022;2023-04-24T13:52:54;99316.09;;;22.74;39.04
75072;BME280;63651;55.728;38.022;2023-04-24T13:57:57;99314.13;;;22.80;39.81
75072;BME280;63651;55.728;38.022;2023-04-24T14:02:58;99286.38;;;22.51;33.01
75072;BME280;63651;55.728;38.022;2023-04-24T14:07:59;99291.50;;;22.67;32.00
75072;BME280;63651;55.728;38.022;2023-04-24T14:13:00;99280.97;;;22.70;35.47
75072;BME280;63651;55.728;38.022;2023-04-24T14:18:02;99287.63;;;22.68;37.39
75072;BME280;63651;55.728;38.022;2023-04-24T14:23:03;99283.97;;;22.73;34.96
75072;BME280;63651;55.728;38.022;2023-04-24T14:28:05;99288.94;;;22.76;33.16
75072;BME280;63651;55.728;38.022;2023-04-24T14:33:06;99291.34;;;22.88;34.79
75072;BME280;63651;55.728;38.022;2023-04-24T14:38:08;99287.47;;;23.13;33.48
75072;BME280;63651;55.728;38.022;2023-04-24T14:43:09;99277.50;;;23.12;31.46
75072;BME280;63651;55.728;38.022;2023-04-24T14:48:10;99282.16;;;23.40;30.87
75072;BME280;63651;55.728;38.022;2023-04-24T14:53:12;99274.09;;;23.44;31.14
75072;BME280;63651;55.728;38.022;2023-04-24T14:58:13;99277.47;;;23.41;32.05
75072;BME280;63651;55.728;38.022;2023-04-24T15:03:14;99271.44;;;23.57;28.49
75072;BME280;63651;55.728;38.022;2023-04-24T15:08:15;99270.56;;;23.62;27.19
75072;BME280;63651;55.728;38.022;2023-04-24T15:13:16;99271.84;;;23.88;27.72
75072;BME280;63651;55.728;38.022;2023-04-24T15:18:17;99280.25;;;24.02;28.65
75072;BME280;63651;55.728;38.022;2023-04-24T15:23:18;99276.34;;;24.03;23.89
75072;BME280;63651;55.728;38.022;2023-04-24T15:28:19;99268.03;;;23.84;24.66
75072;BME280;63651;55.728;38.022;2023-04-24T15:33:22;99282.19;;;23.83;28.41
75072;BME280;63651;55.728;38.022;2023-04-24T15:38:23;99277.59;;;23.54;23.42
75072;BME280;63651;55.728;38.022;2023-04-24T15:43:24;99269.28;;;23.54;23.25
75072;BME280;63651;55.728;38.022;2023-04-24T15:48:27;99248.19;;;23.29;21.12
75072;BME280;63651;55.728;38.022;2023-04-24T15:53:28;99264.88;;;23.24;21.36
75072;BME280;63651;55.728;38.022;2023-04-24T15:58:29;99263.63;;;23.12;21.40
75072;BME280;63651;55.728;38.022;2023-04-24T16:03:30;99270.34;;;23.29;22.13
75072;BME280;63651;55.728;38.022;2023-04-24T16:08:31;99262.69;;;22.97;21.99
75072;BME280;63651;55.728;38.022;2023-04-24T16:13:33;99269.59;;;23.00;22.56
75072;BME280;63651;55.728;38.022;2023-04-24T16:18:34;99271.78;;;23.03;22.56
75072;BME280;63651;55.728;38.022;2023-04-24T16:23:35;99272.91;;;23.02;23.49
75072;BME280;63651;55.728;38.022;2023-04-24T16:28:36;99274.53;;;23.03;23.19
75072;BME280;63651;55.728;38.022;2023-04-24T16:33:37;99272.53;;;23.09;23.57
75072;BME280;63651;55.728;38.022;2023-04-24T16:38:39;99284.91;;;22.92;23.68
75072;BME280;63651;55.728;38.022;2023-04-24T16:43:40;99274.88;;;22.67;23.39
75072;BME280;63651;55.728;38.022;2023-04-24T16:48:41;99284.75;;;22.79;24.65
75072;BME280;63651;55.728;38.022;2023-04-24T16:53:42;99285.75;;;22.59;23.25
75072;BME280;63651;55.728;38.022;2023-04-24T16:58:44;99285.38;;;22.42;22.87
75072;BME280;63651;55.728;38.022;2023-04-24T17:03:45;99292.09;;;22.30;21.18
75072;BME280;63651;55.728;38.022;2023-04-24T17:08:47;99283.19;;;21.40;20.84
75072;BME280;63651;55.728;38.022;2023-04-24T17:13:48;99300.06;;;21.38;21.27
75072;BME280;63651;55.728;38.022;2023-04-24T17:18:49;99303.56;;;21.54;21.93
75072;BME280;63651;55.728;38.022;2023-04-24T17:23:50;99312.75;;;21.45;22.38
75072;BME280;63651;55.728;38.022;2023-04-24T17:28:51;99301.19;;;21.17;21.94
75072;BME280;63651;55.728;38.022;2023-04-24T17:33:54;99306.69;;;21.32;22.99
75072;BME280;63651;55.728;38.022;2023-04-24T17:38:56;99310.56;;;21.36;23.18
75072;BME280;63651;55.728;38.022;2023-04-24T17:43:57;99312.50;;;21.36;23.26
75072;BME280;63651;55.728;38.022;2023-04-24T17:48:58;99312.53;;;21.16;23.18
75072;BME280;63651;55.728;38.022;2023-04-24T17:53:59;99324.44;;;20.96;23.96
75072;BME280;63651;55.728;38.022;2023-04-24T17:59:00;99320.03;;;20.64;23.09
75072;BME280;63651;55.728;38.022;2023-04-24T18:04:01;99326.41;;;20.60;23.27
75072;BME280;63651;55.728;38.022;2023-04-24T18:09:02;99337.16;;;20.51;23.59
75072;BME280;63651;55.728;38.022;2023-04-24T18:14:03;99327.22;;;20.40;23.37
75072;BME280;63651;55.728;38.022;2023-04-24T18:19:04;99321.13;;;20.38;23.91
75072;BME280;63651;55.728;38.022;2023-04-24T18:24:05;99313.94;;;20.22;23.95
75072;BME280;63651;55.728;38.022;2023-04-24T18:29:07;99320.00;;;20.29;24.43
75072;BME280;63651;55.728;38.022;2023-04-24T18:34:08;99284.97;;;20.09;24.66
75072;BME280;63651;55.728;38.022;2023-04-24T18:39:09;99342.63;;;20.36;25.18
75072;BME280;63651;55.728;38.022;2023-04-24T18:44:10;99344.25;;;20.11;24.96
75072;BME280;63651;55.728;38.022;2023-04-24T18:49:11;99337.34;;;20.04;24.99
75072;BME280;63651;55.728;38.022;2023-04-24T18:54:12;99353.66;;;20.16;26.12
75072;BME280;63651;55.728;38.022;2023-04-24T18:59:14;99348.69;;;20.18;25.53
75072;BME280;63651;55.728;38.022;2023-04-24T19:04:15;99351.38;;;19.87;24.99
75072;BME280;63651;55.728;38.022;2023-04-24T19:09:16;99348.38;;;19.99;25.03
75072;BME280;63651;55.728;38.022;2023-04-24T19:14:17;99348.38;;;19.99;25.36
75072;BME280;63651;55.728;38.022;2023-04-24T19:19:19;99351.72;;;20.16;25.39
75072;BME280;63651;55.728;38.022;2023-04-24T19:24:20;99336.28;;;20.35;25.95
75072;BME280;63651;55.728;38.022;2023-04-24T19:29:21;99349.84;;;20.57;25.59
75072;BME280;63651;55.728;38.022;2023-04-24T19:34:22;99346.53;;;20.55;25.94
75072;BME280;63651;55.728;38.022;2023-04-24T19:39:24;99339.94;;;20.82;25.98
75072;BME280;63651;55.728;38.022;2023-04-24T19:44:25;99345.69;;;20.80;25.28
75072;BME280;63651;55.728;38.022;2023-04-24T19:49:26;99347.66;;;20.90;25.05
75072;BME280;63651;55.728;38.022;2023-04-24T19:54:27;99339.91;;;20.97;25.85
75072;BME280;63651;55.728;38.022;2023-04-24T19:59:28;99349.56;;;20.99;24.33
75072;BME280;63651;55.728;38.022;2023-04-24T20:04:29;99347.94;;;20.83;24.74
75072;BME280;63651;55.728;38.022;2023-04-24T20:09:30;99348.47;;;20.75;24.53
75072;BME280;63651;55.728;38.022;2023-04-24T20:14:31;99357.47;;;20.04;23.80
75072;BME280;63651;55.728;38.022;2023-04-24T20:19:32;99360.81;;;20.17;23.85
75072;BME280;63651;55.728;38.022;2023-04-24T20:24:33;99362.38;;;19.77;24.20
75072;BME280;63651;55.728;38.022;2023-04-24T20:29:34;99356.88;;;19.87;24.46
75072;BME280;63651;55.728;38.022;2023-04-24T20:34:36;99364.88;;;19.89;24.19
75072;BME280;63651;55.728;38.022;2023-04-24T20:39:37;99368.22;;;20.01;24.43
75072;BME280;63651;55.728;38.022;2023-04-24T20:44:38;99368.25;;;20.16;25.04
75072;BME280;63651;55.728;38.022;2023-04-24T20:49:39;99358.06;;;20.27;24.88
75072;BME280;63651;55.728;38.022;2023-04-24T20:54:41;99355.03;;;20.23;24.55
75072;BME280;63651;55.728;38.022;2023-04-24T20:59:42;99353.38;;;20.17;24.50
75072;BME280;63651;55.728;38.022;2023-04-24T21:04:43;99336.56;;;20.24;25.26
75072;BME280;63651;55.728;38.022;2023-04-24T21:09:44;99352.88;;;20.61;25.84
75072;BME280;63651;55.728;38.022;2023-04-24T21:14:45;99356.47;;;20.61;24.46
75072;BME280;63651;55.728;38.022;2023-04-24T21:19:46;99361.72;;;20.42;24.88
75072;BME280;63651;55.728;38.022;2023-04-24T21:24:47;99361.66;;;20.27;25.13
75072;BME280;63651;55.728;38.022;2023-04-24T21:29:48;99360.53;;;20.18;25.04
75072;BME280;63651;55.728;38.022;2023-04-24T21:34:49;99360.25;;;20.14;25.40
75072;BME280;63651;55.728;38.022;2023-04-24T21:39:50;99355.84;;;20.08;25.29
75072;BME280;63651;55.728;38.022;2023-04-24T21:44:51;99360.50;;;19.98;25.78
75072;BME280;63651;55.728;38.022;2023-04-24T21:49:52;99356.91;;;19.97;25.43
75072;BME280;63651;55.728;38.022;2023-04-24T21:54:53;99355.78;;;19.88;25.35
75072;BME280;63651;55.728;38.022;2023-04-24T21:59:55;99340.78;;;19.59;25.40
75072;BME280;63651;55.728;38.022;2023-04-24T22:04:56;99344.19;;;19.86;26.11
75072;BME280;63651;55.728;38.022;2023-04-24T22:09:57;99314.19;;;20.05;26.53
75072;BME280;63651;55.728;38.022;2023-04-24T22:14:59;99318.34;;;20.23;25.92
75072;BME280;63651;55.728;38.022;2023-04-24T22:20:00;99329.34;;;20.07;25.63
75072;BME280;63651;55.728;38.022;2023-04-24T22:25:01;99325.50;;;20.08;26.04
75072;BME280;63651;55.728;38.022;2023-04-24T22:30:03;99332.34;;;19.91;26.37
75072;BME280;63651;55.728;38.022;2023-04-24T22:35:04;99336.78;;;19.92;26.32
75072;BME280;63651;55.728;38.022;2023-04-24T22:40:06;99343.91;;;19.77;26.64
75072;BME280;63651;55.728;38.022;2023-04-24T22:45:08;99349.69;;;19.81;26.55
75072;BME280;63651;55.728;38.022;2023-04-24T22:50:11;99340.59;;;19.80;27.01
75072;BME280;63651;55.728;38.022;2023-04-24T22:55:12;99353.81;;;19.78;27.06
75072;BME280;63651;55.728;38.022;2023-04-24T23:00:13;99358.53;;;19.83;27.07
75072;BME280;63651;55.728;38.022;2023-04-24T23:05:15;99359.66;;;19.92;27.15
75072;BME280;63651;55.728;38.022;2023-04-24T23:10:16;99348.63;;;19.92;27.37
75072;BME280;63651;55.728;38.022;2023-04-24T23:15:17;99348.88;;;19.80;27.27
75072;BME280;63651;55.728;38.022;2023-04-24T23:20:20;99356.28;;;19.75;27.53
75072;BME280;63651;55.728;38.022;2023-04-24T23:25:21;99356.25;;;19.65;27.90
75072;BME280;63651;55.728;38.022;2023-04-24T23:30:22;99351.56;;;19.65;27.90
75072;BME280;63651;55.728;38.022;2023-04-24T23:35:24;99342.94;;;19.52;28.12
75072;BME280;63651;55.728;38.022;2023-04-24T23:40:25;99342.31;;;19.44;28.62
75072;BME280;63651;55.728;38.022;2023-04-24T23:45:26;99340.81;;;19.16;28.89
75072;BME280;63651;55.728;38.022;2023-04-24T23:50:27;99350.03;;;18.95;29.40
75072;BME280;63651;55.728;38.022;2023-04-24T23:55:28;99344.75;;;18.89;29.43
